Time;durP1;ratioP1;P1;durP2;ratioP2;P2;SDS_P1;SDS_P2;PMS_P1;PMS_P2;Temp;Humidity;BMP_temperature;BMP_pressure;BME280_temperature;BME280_humidity;BME280_pressure;Samples;Min_cycle;Max_cycle;Signal;HPM_P1;HPM_P2
2022/03/04 00:01:56;;;;;;;24.10;12.13;;;2.70;99.90;;;;;;5051065;28;20045;-52
2022/03/04 00:04:21;;;;;;;26.63;13.35;;;2.70;99.90;;;;;;5051220;28;20086;-52
2022/03/04 00:06:47;;;;;;;25.67;11.77;;;2.70;99.90;;;;;;5050804;28;20119;-53
2022/03/04 00:09:13;;;;;;;26.25;11.93;;;2.80;99.90;;;;;;5051308;28;20048;-55
2022/03/04 00:11:39;;;;;;;21.73;11.50;;;2.70;99.90;;;;;;5051085;28;20033;-52
2022/03/04 00:14:04;;;;;;;25.13;11.85;;;2.70;99.90;;;;;;5051055;28;20067;-53
2022/03/04 00:16:31;;;;;;;25.00;11.95;;;2.70;99.90;;;;;;5050718;28;20408;-51
2022/03/04 00:19:07;;;;;;;25.05;12.32;;;2.60;99.90;;;;;;5050963;28;20080;-50
2022/03/04 00:21:44;;;;;;;23.08;11.55;;;2.60;99.90;;;;;;5049567;28;20041;-52
2022/03/04 00:24:11;;;;;;;22.35;12.00;;;2.50;99.90;;;;;;5049953;28;20515;-52
2022/03/04 00:26:38;;;;;;;23.15;10.57;;;2.50;99.90;;;;;;5050594;28;20079;-53
2022/03/04 00:29:05;;;;;;;26.70;12.25;;;2.50;99.90;;;;;;5030931;28;20064;-52
2022/03/04 00:31:31;;;;;;;24.15;12.27;;;2.50;99.90;;;;;;5042507;28;20134;-51
2022/03/04 00:33:57;;;;;;;20.75;10.35;;;2.50;99.90;;;;;;5050594;28;20041;-53
2022/03/04 00:36:23;;;;;;;24.70;11.45;;;2.40;99.90;;;;;;5050687;28;20049;-52
2022/03/04 00:38:55;;;;;;;23.95;11.57;;;2.40;99.90;;;;;;5050946;28;20039;-53
2022/03/04 00:41:21;;;;;;;21.92;11.18;;;2.40;99.90;;;;;;5047151;28;20544;-52
2022/03/04 00:43:48;;;;;;;21.00;11.20;;;2.30;99.90;;;;;;5054354;28;20064;-52
2022/03/04 00:46:14;;;;;;;22.00;10.35;;;2.30;99.90;;;;;;5053962;28;20049;-52
2022/03/04 00:48:44;;;;;;;21.42;9.90;;;2.30;99.90;;;;;;5051457;28;20059;-54
2022/03/04 00:51:10;;;;;;;19.70;10.85;;;2.30;99.90;;;;;;5049074;28;20068;-52
2022/03/04 00:53:36;;;;;;;20.95;10.65;;;2.20;99.90;;;;;;5054336;28;20041;-51
2022/03/04 00:56:03;;;;;;;20.20;10.20;;;2.20;99.90;;;;;;5053637;28;20045;-52
2022/03/04 00:58:29;;;;;;;23.10;10.40;;;2.20;99.90;;;;;;5054094;28;20029;-51
2022/03/04 01:00:55;;;;;;;20.33;10.43;;;2.30;99.90;;;;;;5053806;28;20037;-52
2022/03/04 01:03:20;;;;;;;21.60;10.93;;;2.30;99.90;;;;;;5053792;28;20524;-51
2022/03/04 01:05:46;;;;;;;18.38;10.32;;;2.20;99.90;;;;;;5045362;28;20040;-50
2022/03/04 01:08:12;;;;;;;18.98;9.82;;;2.30;99.90;;;;;;5053550;28;20045;-53
2022/03/04 01:10:38;;;;;;;22.75;10.50;;;2.30;99.90;;;;;;5053782;28;20560;-52
2022/03/04 01:13:04;;;;;;;19.05;9.52;;;2.10;99.90;;;;;;5040108;28;20400;-51
2022/03/04 01:15:30;;;;;;;19.48;9.90;;;2.20;99.90;;;;;;5044225;28;20044;-53
2022/03/04 01:17:56;;;;;;;22.98;9.90;;;2.20;99.90;;;;;;5033288;28;20037;-51
2022/03/04 01:20:22;;;;;;;21.35;9.90;;;2.20;99.90;;;;;;5034681;28;20094;-52
2022/03/04 01:22:48;;;;;;;20.38;9.88;;;2.10;99.90;;;;;;5053568;28;20040;-54
2022/03/04 01:25:13;;;;;;;16.67;9.23;;;2.10;99.90;;;;;;5053552;28;20404;-51
2022/03/04 01:27:39;;;;;;;20.67;10.05;;;2.00;99.90;;;;;;5053252;28;20492;-51
2022/03/04 01:30:06;;;;;;;17.00;8.85;;;2.10;99.90;;;;;;5053471;28;20542;-54
2022/03/04 01:32:32;;;;;;;17.70;8.32;;;2.00;99.90;;;;;;5052690;28;20041;-55
2022/03/04 01:34:58;;;;;;;19.67;9.80;;;2.00;99.90;;;;;;5053409;28;20048;-54
2022/03/04 01:37:24;;;;;;;23.25;9.80;;;1.90;99.90;;;;;;5053181;28;20035;-51
2022/03/04 01:39:50;;;;;;;20.50;10.10;;;1.80;99.90;;;;;;5053181;28;20090;-51
2022/03/04 01:42:16;;;;;;;21.17;10.65;;;1.80;99.90;;;;;;5052857;28;20345;-53
2022/03/04 01:44:41;;;;;;;19.77;9.23;;;1.70;99.90;;;;;;5053238;28;20408;-54
2022/03/04 01:47:07;;;;;;;21.60;10.77;;;1.80;99.90;;;;;;5052614;28;20056;-50
2022/03/04 01:49:33;;;;;;;23.10;10.88;;;1.80;99.90;;;;;;5053150;28;20048;-54
2022/03/04 01:51:59;;;;;;;19.80;10.68;;;1.70;99.90;;;;;;5052604;28;20044;-53
2022/03/04 01:54:24;;;;;;;18.98;9.70;;;1.80;99.90;;;;;;5052622;28;20044;-53
2022/03/04 01:56:51;;;;;;;22.15;10.70;;;1.80;99.90;;;;;;5052518;28;20106;-50
2022/03/04 01:59:17;;;;;;;20.63;9.95;;;1.70;99.90;;;;;;5051568;28;20044;-52
2022/03/04 02:01:43;;;;;;;23.02;10.60;;;1.70;99.90;;;;;;5052436;28;20405;-54
2022/03/04 02:04:09;;;;;;;21.25;10.60;;;1.70;99.90;;;;;;5053040;28;20170;-56
2022/03/04 02:06:34;;;;;;;20.13;10.52;;;1.70;99.90;;;;;;5051238;28;20123;-54
2022/03/04 02:09:00;;;;;;;23.45;11.40;;;1.60;99.90;;;;;;5052785;28;20152;-55
2022/03/04 02:11:26;;;;;;;22.50;10.25;;;1.60;99.90;;;;;;5052305;28;20590;-55
2022/03/04 02:13:52;;;;;;;20.85;10.85;;;1.50;99.90;;;;;;5052829;28;20045;-55
2022/03/04 02:16:34;;;;;;;20.02;9.23;;;1.50;99.90;;;;;;5050756;28;20049;-54
2022/03/04 02:19:00;;;;;;;28.63;11.50;;;1.50;99.90;;;;;;5052690;28;20401;-56
2022/03/04 02:21:26;;;;;;;22.95;8.98;;;1.40;99.90;;;;;;5051851;28;20436;-56
2022/03/04 02:23:52;;;;;;;25.85;11.05;;;1.40;99.90;;;;;;5052420;28;20041;-56
2022/03/04 02:26:18;;;;;;;23.25;11.63;;;1.40;99.90;;;;;;5052018;28;20099;-55
2022/03/04 02:28:45;;;;;;;22.27;11.70;;;1.30;99.90;;;;;;5052156;28;20049;-55
2022/03/04 02:31:21;;;;;;;24.35;11.75;;;1.30;99.90;;;;;;5052019;28;20489;-56
2022/03/04 02:33:48;;;;;;;24.35;11.63;;;1.30;99.90;;;;;;5050749;28;20536;-55
2022/03/04 02:36:14;;;;;;;21.65;11.18;;;1.30;99.90;;;;;;5051834;28;20033;-56
2022/03/04 02:38:40;;;;;;;24.40;11.65;;;1.30;99.90;;;;;;5052251;28;20044;-56
2022/03/04 02:41:06;;;;;;;26.13;12.55;;;1.30;99.90;;;;;;5051304;28;20033;-56
2022/03/04 02:43:32;;;;;;;26.92;11.80;;;1.20;99.90;;;;;;5051955;28;20037;-56
2022/03/04 02:45:58;;;;;;;26.20;12.07;;;1.10;99.90;;;;;;5051884;28;20044;-54
2022/03/04 02:48:23;;;;;;;23.55;10.43;;;1.20;99.90;;;;;;5052102;28;20040;-52
2022/03/04 02:50:49;;;;;;;21.23;9.85;;;1.20;99.90;;;;;;5051567;28;20404;-53
2022/03/04 02:53:14;;;;;;;26.58;11.25;;;1.10;99.90;;;;;;5051905;28;20041;-52
2022/03/04 02:55:40;;;;;;;22.15;8.43;;;1.10;99.90;;;;;;5051489;28;20041;-53
2022/03/04 02:58:06;;;;;;;27.92;11.75;;;1.10;99.90;;;;;;5051758;28;20483;-52
2022/03/04 03:00:31;;;;;;;24.83;10.98;;;1.10;99.90;;;;;;5051958;28;20108;-52
2022/03/04 03:02:57;;;;;;;24.83;11.27;;;1.10;99.90;;;;;;5049763;28;20037;-51
2022/03/04 03:05:23;;;;;;;24.52;10.38;;;1.10;99.90;;;;;;5051489;28;20045;-54
2022/03/04 03:07:49;;;;;;;27.35;12.25;;;1.10;99.90;;;;;;5051453;28;20091;-52
2022/03/04 03:10:14;;;;;;;24.75;11.63;;;1.00;99.90;;;;;;5051612;28;20487;-52
2022/03/04 03:12:41;;;;;;;27.67;12.38;;;1.00;99.90;;;;;;5051221;28;20109;-52
2022/03/04 03:15:08;;;;;;;27.58;12.57;;;1.00;99.90;;;;;;5051642;28;20033;-53
2022/03/04 03:17:34;;;;;;;27.45;11.80;;;0.90;99.90;;;;;;5051210;28;20135;-52
2022/03/04 03:19:59;;;;;;;26.10;11.30;;;0.90;99.90;;;;;;5051571;28;20033;-52
2022/03/04 03:22:25;;;;;;;22.63;11.35;;;0.90;99.90;;;;;;5051322;28;20116;-52
2022/03/04 03:24:51;;;;;;;22.98;11.38;;;1.00;99.90;;;;;;5051307;28;20043;-51
2022/03/04 03:27:17;;;;;;;30.27;12.73;;;0.90;99.90;;;;;;5049935;28;20092;-53
2022/03/04 03:29:43;;;;;;;30.77;13.63;;;0.80;99.90;;;;;;5051671;28;20045;-52
2022/03/04 03:32:13;;;;;;;26.33;12.75;;;0.90;99.90;;;;;;5051034;28;20409;-51
2022/03/04 03:34:40;;;;;;;31.23;13.27;;;0.80;99.90;;;;;;5050293;28;20087;-56
2022/03/04 03:37:07;;;;;;;27.40;11.82;;;0.80;99.90;;;;;;5051086;28;20115;-56
2022/03/04 03:39:32;;;;;;;30.00;13.57;;;0.80;99.90;;;;;;5050937;28;20029;-56
2022/03/04 03:41:59;;;;;;;24.60;11.50;;;0.90;99.90;;;;;;5051465;28;20040;-56
2022/03/04 03:44:24;;;;;;;28.15;13.65;;;0.80;99.90;;;;;;5039712;28;20040;-56
2022/03/04 03:46:50;;;;;;;27.27;12.45;;;0.70;99.90;;;;;;5043143;28;20504;-56
2022/03/04 03:49:16;;;;;;;29.45;12.93;;;0.70;99.90;;;;;;5050982;28;20097;-55
2022/03/04 03:51:41;;;;;;;30.83;14.80;;;0.70;99.90;;;;;;5051185;28;20185;-56
2022/03/04 03:54:07;;;;;;;34.22;15.50;;;0.70;99.90;;;;;;5050933;28;20520;-56
2022/03/04 03:56:32;;;;;;;29.42;13.40;;;0.60;99.90;;;;;;5050848;28;20048;-56
2022/03/04 03:58:58;;;;;;;30.98;14.02;;;0.50;99.90;;;;;;5050652;28;20041;-56
2022/03/04 04:01:24;;;;;;;34.00;16.40;;;0.50;99.90;;;;;;5050856;28;20033;-56
2022/03/04 04:03:49;;;;;;;31.25;14.18;;;0.50;99.90;;;;;;5050555;28;20083;-57
2022/03/04 04:06:15;;;;;;;32.67;15.60;;;0.50;99.90;;;;;;5050779;28;20037;-57
2022/03/04 04:08:41;;;;;;;35.35;15.43;;;0.40;99.90;;;;;;5050839;28;20056;-56
2022/03/04 04:11:06;;;;;;;32.83;14.90;;;0.60;99.90;;;;;;5050743;28;20033;-57
2022/03/04 04:13:32;;;;;;;34.85;15.00;;;0.50;99.90;;;;;;5050980;28;20073;-57
2022/03/04 04:15:57;;;;;;;35.35;15.90;;;0.50;99.90;;;;;;5054592;28;20045;-57
2022/03/04 04:18:23;;;;;;;32.80;14.90;;;0.50;99.90;;;;;;5054763;28;20041;-57
2022/03/04 04:20:49;;;;;;;36.03;16.52;;;0.50;99.90;;;;;;5054479;28;20079;-57
2022/03/04 04:23:14;;;;;;;36.53;16.02;;;0.40;99.90;;;;;;5054585;28;20037;-57
2022/03/04 04:25:40;;;;;;;37.20;15.73;;;0.30;99.90;;;;;;5054520;28;20123;-57
2022/03/04 04:28:05;;;;;;;36.65;16.08;;;0.30;99.90;;;;;;5054520;28;20083;-57
2022/03/04 04:30:31;;;;;;;36.67;16.45;;;0.20;99.90;;;;;;5054479;28;20041;-57
2022/03/04 04:32:57;;;;;;;30.73;14.98;;;0.30;99.90;;;;;;5052578;28;20073;-57
2022/03/04 04:35:23;;;;;;;31.83;13.98;;;0.30;99.90;;;;;;5051100;28;20377;-58
2022/03/04 04:37:49;;;;;;;37.10;16.95;;;0.20;99.90;;;;;;5054054;28;20339;-57
2022/03/04 04:40:15;;;;;;;38.17;16.75;;;0.30;99.90;;;;;;5054188;28;20068;-57
2022/03/04 04:42:40;;;;;;;36.88;15.60;;;0.30;99.90;;;;;;5053335;28;20079;-53
2022/03/04 04:45:07;;;;;;;36.70;17.23;;;0.20;99.90;;;;;;5054195;28;20485;-56
2022/03/04 04:47:34;;;;;;;35.78;15.90;;;0.20;99.90;;;;;;5053087;28;20345;-56
2022/03/04 04:49:59;;;;;;;35.20;17.42;;;0.30;99.90;;;;;;5053763;28;20041;-56
2022/03/04 04:52:25;;;;;;;36.63;15.85;;;0.10;99.90;;;;;;5045294;28;20095;-56
2022/03/04 04:54:51;;;;;;;34.15;16.08;;;0.10;99.90;;;;;;5053554;28;20128;-53
2022/03/04 04:57:17;;;;;;;32.53;15.02;;;0.10;99.90;;;;;;5077020;22;20518;-47
2022/03/04 04:59:42;;;;;;;37.92;17.23;;;0.10;99.90;;;;;;5033604;28;20037;-47
2022/03/04 05:02:08;;;;;;;41.97;15.05;;;0.00;99.90;;;;;;5033013;28;20038;-49
2022/03/04 05:04:33;;;;;;;28.05;12.13;;;-0.10;99.90;;;;;;5034060;28;20042;-47
2022/03/04 05:06:59;;;;;;;36.45;17.75;;;0.00;99.90;;;;;;5033570;28;20072;-47
2022/03/04 05:09:24;;;;;;;41.60;17.27;;;0.00;99.90;;;;;;5033392;28;20042;-47
2022/03/04 05:11:50;;;;;;;40.65;17.75;;;-0.10;99.90;;;;;;5033685;28;20401;-49
2022/03/04 05:14:16;;;;;;;38.83;17.42;;;0.00;99.90;;;;;;5033792;28;20041;-47
2022/03/04 05:16:41;;;;;;;42.95;19.55;;;-0.10;99.90;;;;;;5032772;28;20091;-49
2022/03/04 05:19:07;;;;;;;47.90;18.77;;;-0.20;99.90;;;;;;5033641;28;20508;-46
2022/03/04 05:21:32;;;;;;;45.40;18.90;;;-0.20;99.90;;;;;;5032750;28;20037;-49
2022/03/04 05:24:02;;;;;;;38.17;15.82;;;-0.20;99.90;;;;;;5033453;28;20118;-47
2022/03/04 05:26:32;;;;;;;46.25;18.55;;;-0.30;99.90;;;;;;5032804;28;20114;-46
2022/03/04 05:29:00;;;;;;;41.33;18.55;;;-0.20;99.90;;;;;;5033469;28;20113;-48
2022/03/04 05:31:26;;;;;;;42.55;19.42;;;-0.10;99.90;;;;;;5033299;28;20064;-47
2022/03/04 05:33:52;;;;;;;33.40;13.75;;;-0.10;99.90;;;;;;5033436;28;20048;-47
2022/03/04 05:36:19;;;;;;;34.40;14.20;;;-0.20;99.90;;;;;;5032712;28;20451;-46
2022/03/04 05:38:46;;;;;;;40.85;18.58;;;-0.10;99.90;;;;;;5033570;28;20568;-47
2022/03/04 05:41:12;;;;;;;44.92;18.80;;;-0.20;99.90;;;;;;5032959;28;20049;-51
2022/03/04 05:43:38;;;;;;;43.65;19.88;;;-0.20;99.90;;;;;;5015637;28;20080;-47
2022/03/04 05:46:05;;;;;;;49.45;20.63;;;-0.10;99.90;;;;;;5031882;28;20056;-51
2022/03/04 05:48:30;;;;;;;45.28;19.42;;;-0.20;99.90;;;;;;5032496;28;20440;-47
2022/03/04 05:50:56;;;;;;;45.25;20.35;;;-0.20;99.90;;;;;;5032918;28;20107;-47
2022/03/04 05:53:22;;;;;;;51.40;20.60;;;-0.20;99.90;;;;;;5015572;28;20037;-47
2022/03/04 05:55:48;;;;;;;50.05;19.98;;;-0.20;99.90;;;;;;5015340;28;20060;-47
2022/03/04 05:58:14;;;;;;;42.42;16.48;;;-0.20;99.90;;;;;;5032210;28;20037;-47
2022/03/04 06:00:39;;;;;;;46.95;20.85;;;0.00;99.90;;;;;;5033032;28;20083;-50
2022/03/04 06:03:07;;;;;;;37.45;15.05;;;-0.10;99.90;;;;;;5032856;28;20043;-46
2022/03/04 06:05:33;;;;;;;40.47;18.15;;;0.00;99.90;;;;;;5032546;28;20042;-47
2022/03/04 06:07:59;;;;;;;42.20;18.45;;;0.00;99.90;;;;;;5032324;28;20463;-48
2022/03/04 06:10:24;;;;;;;48.95;19.67;;;0.00;99.90;;;;;;5032573;28;20052;-47
2022/03/04 06:12:50;;;;;;;43.45;19.85;;;0.00;99.90;;;;;;5032720;28;20076;-50
2022/03/04 06:15:15;;;;;;;38.90;18.23;;;-0.10;99.90;;;;;;5032439;28;20180;-47
2022/03/04 06:17:49;;;;;;;41.25;19.33;;;-0.10;99.90;;;;;;5032391;28;20116;-47
2022/03/04 06:20:15;;;;;;;37.95;15.77;;;-0.10;99.90;;;;;;5030909;28;20033;-50
2022/03/04 06:22:42;;;;;;;43.60;17.95;;;0.00;99.90;;;;;;5030965;28;20083;-46
2022/03/04 06:25:09;;;;;;;45.13;17.67;;;-0.10;99.90;;;;;;5031320;28;20445;-47
2022/03/04 06:27:35;;;;;;;48.13;20.42;;;-0.10;99.90;;;;;;5031075;28;20135;-51
2022/03/04 06:30:00;;;;;;;46.10;19.67;;;-0.20;99.90;;;;;;5031863;28;20521;-51
2022/03/04 06:32:26;;;;;;;47.30;20.13;;;-0.20;99.90;;;;;;5032094;28;20037;-49
2022/03/04 06:34:51;;;;;;;43.40;18.40;;;-0.30;99.90;;;;;;5032010;28;20041;-49
2022/03/04 06:37:17;;;;;;;45.10;19.77;;;-0.20;99.90;;;;;;5031340;28;20041;-50
2022/03/04 06:39:43;;;;;;;44.08;19.15;;;-0.10;99.90;;;;;;5030513;28;20041;-47
2022/03/04 06:42:09;;;;;;;51.47;21.65;;;-0.10;99.90;;;;;;5032243;28;20034;-47
2022/03/04 06:44:34;;;;;;;51.30;20.75;;;-0.20;99.90;;;;;;5031952;28;20508;-46
2022/03/04 06:47:00;;;;;;;49.47;21.30;;;-0.20;99.90;;;;;;5031546;28;20045;-47
2022/03/04 06:49:26;;;;;;;45.80;20.30;;;-0.10;99.90;;;;;;5031819;28;20080;-47
2022/03/04 06:51:51;;;;;;;42.72;18.73;;;0.00;99.90;;;;;;5024623;28;20038;-49
2022/03/04 06:54:17;;;;;;;46.28;20.08;;;-0.10;99.90;;;;;;5023412;28;20389;-51
2022/03/04 06:56:42;;;;;;;49.63;21.10;;;0.00;99.90;;;;;;5028212;28;20432;-46
2022/03/04 06:59:08;;;;;;;50.58;21.40;;;-0.10;99.90;;;;;;5031813;28;20042;-47
2022/03/04 07:01:33;;;;;;;53.17;22.40;;;0.00;99.90;;;;;;5030600;28;20033;-50
2022/03/04 07:03:59;;;;;;;48.97;20.75;;;-0.10;99.90;;;;;;5014083;28;20056;-48
2022/03/04 07:06:25;;;;;;;52.17;21.88;;;0.00;99.90;;;;;;5013684;28;20124;-47
2022/03/04 07:08:50;;;;;;;51.88;23.02;;;0.00;99.90;;;;;;5031434;28;20112;-47
2022/03/04 07:11:16;;;;;;;53.08;23.05;;;0.00;99.90;;;;;;5030414;28;20112;-47
2022/03/04 07:13:41;;;;;;;53.97;22.17;;;0.00;99.90;;;;;;5030692;28;20037;-51
2022/03/04 07:16:07;;;;;;;49.25;21.35;;;0.00;99.90;;;;;;5023044;28;20057;-52
2022/03/04 07:18:33;;;;;;;51.33;21.98;;;0.10;99.90;;;;;;5029896;28;20044;-47
2022/03/04 07:20:59;;;;;;;32.05;14.25;;;0.00;99.90;;;;;;5025441;28;20080;-47
2022/03/04 07:23:25;;;;;;;50.22;20.63;;;0.00;99.90;;;;;;5010524;28;20585;-47
2022/03/04 07:25:50;;;;;;;55.22;22.27;;;0.10;99.90;;;;;;5021558;28;20037;-47
2022/03/04 07:28:17;;;;;;;48.95;21.73;;;0.10;99.90;;;;;;5031163;28;20052;-49
2022/03/04 07:30:43;;;;;;;47.80;19.48;;;0.00;99.90;;;;;;5030665;28;20104;-50
2022/03/04 07:33:09;;;;;;;54.17;21.58;;;0.10;99.90;;;;;;5004985;28;20455;-50
2022/03/04 07:35:36;;;;;;;57.15;22.45;;;0.10;99.90;;;;;;5031361;28;20045;-50
2022/03/04 07:38:02;;;;;;;50.05;20.45;;;0.10;99.90;;;;;;5030304;28;20470;-53
2022/03/04 07:40:28;;;;;;;44.75;19.27;;;0.20;99.90;;;;;;5046455;28;20124;-50
2022/03/04 07:42:54;;;;;;;54.00;21.83;;;0.20;99.90;;;;;;5030737;28;20120;-53
2022/03/04 07:45:19;;;;;;;46.20;18.10;;;0.20;99.90;;;;;;5031228;28;20065;-53
2022/03/04 07:47:45;;;;;;;51.90;21.35;;;0.30;99.90;;;;;;5030920;28;20064;-53
2022/03/04 07:50:14;;;;;;;46.70;19.92;;;0.30;99.90;;;;;;5034241;28;20460;-53
2022/03/04 07:52:40;;;;;;;52.90;19.55;;;0.30;99.90;;;;;;5035518;28;20124;-53
2022/03/04 07:55:08;;;;;;;49.08;21.30;;;0.20;99.90;;;;;;5035306;28;20041;-53
2022/03/04 07:57:35;;;;;;;52.83;21.80;;;0.10;99.90;;;;;;5027203;28;20044;-53
2022/03/04 08:00:01;;;;;;;53.28;21.60;;;0.20;99.90;;;;;;5033764;28;20041;-53
2022/03/04 08:02:27;;;;;;;48.50;18.92;;;0.20;99.90;;;;;;5035286;28;20044;-53
2022/03/04 08:04:52;;;;;;;52.40;21.25;;;0.30;99.90;;;;;;5033920;28;20124;-53
2022/03/04 08:07:18;;;;;;;52.63;21.08;;;0.30;99.90;;;;;;5033328;28;20053;-53
2022/03/04 08:09:44;;;;;;;51.75;22.65;;;0.20;99.90;;;;;;5034345;28;20052;-53
2022/03/04 08:12:10;;;;;;;46.25;18.73;;;0.20;99.90;;;;;;5034912;28;20042;-53
2022/03/04 08:14:36;;;;;;;48.78;20.70;;;0.30;99.90;;;;;;5034561;28;20064;-53
2022/03/04 08:17:02;;;;;;;44.75;19.52;;;0.30;99.90;;;;;;5034329;28;20037;-52
2022/03/04 08:19:28;;;;;;;47.20;20.83;;;0.30;99.90;;;;;;5034870;28;20046;-50
2022/03/04 08:21:53;;;;;;;50.17;20.88;;;0.40;99.90;;;;;;5033700;28;20044;-54
2022/03/04 08:24:19;;;;;;;51.50;21.13;;;0.40;99.90;;;;;;5034604;28;20481;-53
2022/03/04 08:26:45;;;;;;;51.88;22.25;;;0.40;99.90;;;;;;5016878;28;20049;-53
2022/03/04 08:29:11;;;;;;;52.00;22.52;;;0.40;99.90;;;;;;5033232;28;20041;-53
2022/03/04 08:31:37;;;;;;;50.55;21.42;;;0.50;99.90;;;;;;5034781;28;20444;-53
2022/03/04 08:34:04;;;;;;;51.70;22.52;;;0.60;99.90;;;;;;5034501;28;20034;-53
2022/03/04 08:36:31;;;;;;;48.45;21.42;;;0.60;99.90;;;;;;5033208;28;20095;-53
2022/03/04 08:38:57;;;;;;;52.33;21.00;;;0.60;99.90;;;;;;5026057;28;20041;-53
2022/03/04 08:41:24;;;;;;;54.17;22.55;;;0.70;99.90;;;;;;5033749;28;20419;-51
2022/03/04 08:43:51;;;;;;;54.92;23.10;;;0.70;99.90;;;;;;5032420;28;20036;-53
2022/03/04 08:46:17;;;;;;;55.85;23.88;;;0.70;99.90;;;;;;5034147;28;20165;-53
2022/03/04 08:48:43;;;;;;;50.38;22.85;;;0.70;99.90;;;;;;5034343;28;20180;-53
2022/03/04 08:51:09;;;;;;;52.63;22.85;;;0.80;99.90;;;;;;5025829;28;20497;-52
2022/03/04 08:53:35;;;;;;;50.80;21.38;;;0.90;99.90;;;;;;5033135;28;20099;-54
2022/03/04 08:56:03;;;;;;;50.47;21.42;;;0.90;99.90;;;;;;5033908;28;20041;-52
2022/03/04 08:58:28;;;;;;;54.10;23.80;;;1.00;99.90;;;;;;5033593;28;20469;-54
2022/03/04 09:00:54;;;;;;;50.63;21.15;;;1.00;99.90;;;;;;5048606;28;20075;-53
2022/03/04 09:03:20;;;;;;;47.75;21.23;;;1.10;99.90;;;;;;5033121;28;20041;-53
2022/03/04 09:05:46;;;;;;;56.90;23.30;;;1.10;99.90;;;;;;5033779;28;20118;-54
2022/03/04 09:08:11;;;;;;;50.90;22.13;;;1.00;99.90;;;;;;5033399;28;20095;-50
2022/03/04 09:10:37;;;;;;;52.60;23.42;;;1.00;99.90;;;;;;5032812;28;20045;-53
2022/03/04 09:13:04;;;;;;;49.55;22.35;;;0.90;99.90;;;;;;5032708;28;20486;-53
2022/03/04 09:15:31;;;;;;;52.47;21.83;;;1.00;99.90;;;;;;5013606;28;20045;-54
2022/03/04 09:17:56;;;;;;;53.08;23.13;;;1.00;99.90;;;;;;5029808;28;20037;-54
2022/03/04 09:20:22;;;;;;;52.55;21.90;;;1.10;99.90;;;;;;5021480;28;20034;-54
2022/03/04 09:22:48;;;;;;;47.33;20.92;;;1.10;99.90;;;;;;5032697;28;20520;-51
2022/03/04 09:25:14;;;;;;;49.35;20.70;;;1.30;99.90;;;;;;5029577;28;20472;-54
2022/03/04 09:27:46;;;;;;;51.72;22.65;;;1.40;99.90;;;;;;5028809;28;20108;-54
2022/03/04 09:30:12;;;;;;;54.30;23.97;;;1.30;99.90;;;;;;5030920;28;20046;-52
2022/03/04 09:32:39;;;;;;;57.35;23.20;;;1.20;99.90;;;;;;5033331;28;20047;-54
2022/03/04 09:35:05;;;;;;;53.58;21.65;;;1.20;99.90;;;;;;5033341;28;20041;-54
2022/03/04 09:37:32;;;;;;;52.33;22.63;;;1.20;99.90;;;;;;5033064;28;20126;-53
2022/03/04 09:39:57;;;;;;;52.30;22.35;;;1.30;99.90;;;;;;5033100;28;20120;-54
2022/03/04 09:42:24;;;;;;;57.80;23.95;;;1.40;99.90;;;;;;5033115;28;20479;-54
2022/03/04 09:44:50;;;;;;;50.03;23.13;;;1.50;99.90;;;;;;5033502;28;20139;-53
2022/03/04 09:47:21;;;;;;;55.55;23.58;;;1.50;99.90;;;;;;5033272;28;20033;-54
2022/03/04 09:49:46;;;;;;;49.42;21.63;;;1.50;99.90;;;;;;5033602;28;20037;-54
2022/03/04 09:52:12;;;;;;;52.05;22.92;;;1.60;99.90;;;;;;5033145;28;20486;-53
2022/03/04 09:54:38;;;;;;;57.08;23.33;;;1.70;99.90;;;;;;5032847;28;20081;-54
2022/03/04 09:57:03;;;;;;;53.20;23.10;;;1.80;99.90;;;;;;5032584;28;20034;-54
2022/03/04 09:59:29;;;;;;;51.20;21.80;;;1.90;99.90;;;;;;5032984;28;20045;-53
2022/03/04 10:01:58;;;;;;;50.22;21.52;;;1.90;99.90;;;;;;5032988;28;20116;-53
2022/03/04 10:04:28;;;;;;;51.20;21.90;;;2.00;99.90;;;;;;5032976;28;20034;-54
2022/03/04 10:06:54;;;;;;;50.58;22.55;;;2.10;99.90;;;;;;5048023;28;20037;-54
2022/03/04 10:09:37;;;;;;;54.00;23.60;;;2.10;99.90;;;;;;5028524;28;20110;-54
2022/03/04 10:12:04;;;;;;;56.22;22.80;;;2.10;99.90;;;;;;5014233;28;20494;-54
2022/03/04 10:14:30;;;;;;;52.55;22.92;;;2.10;99.90;;;;;;5016410;28;20041;-54
2022/03/04 10:16:57;;;;;;;50.25;22.95;;;2.20;99.90;;;;;;5032433;28;20052;-54
2022/03/04 10:19:23;;;;;;;47.92;22.02;;;2.30;99.90;;;;;;5031404;28;20370;-51
2022/03/04 10:21:57;;;;;;;50.05;22.58;;;2.30;99.90;;;;;;5032767;28;20132;-54
2022/03/04 10:24:30;;;;;;;49.30;20.50;;;2.50;99.90;;;;;;5032621;28;20052;-54
2022/03/04 10:27:02;;;;;;;50.08;21.63;;;2.60;99.90;;;;;;5029613;28;20033;-54
2022/03/04 10:29:31;;;;;;;47.70;22.05;;;2.70;99.90;;;;;;5028015;28;20073;-53
2022/03/04 10:32:56;;;;;;;52.85;22.95;;;2.70;99.90;;;;;;5034497;28;20120;-50
2022/03/04 10:35:43;;;;;;;51.60;22.80;;;2.70;99.90;;;;;;5043558;28;20068;-52
2022/03/04 10:38:19;;;;;;;46.10;19.98;;;2.70;99.90;;;;;;5012486;28;20045;-51
2022/03/04 10:40:45;;;;;;;46.25;21.25;;;2.80;99.90;;;;;;5024734;28;20520;-52
2022/03/04 10:43:12;;;;;;;49.10;22.38;;;2.70;99.90;;;;;;5032276;28;20053;-52
2022/03/04 10:45:37;;;;;;;44.50;19.98;;;2.70;99.90;;;;;;5031684;28;20072;-51
2022/03/04 10:48:20;;;;;;;51.10;21.85;;;2.80;99.90;;;;;;5031479;28;20566;-51
2022/03/04 10:50:51;;;;;;;46.05;19.10;;;2.90;99.90;;;;;;5031919;28;20615;-49
2022/03/04 10:53:22;;;;;;;47.92;21.35;;;3.10;99.90;;;;;;5028656;28;20072;-52
2022/03/04 10:55:56;;;;;;;48.55;22.25;;;3.10;99.90;;;;;;5031389;28;20064;-52
2022/03/04 10:58:43;;;;;;;52.35;22.88;;;3.30;99.90;;;;;;5038606;28;20046;-52
2022/03/04 11:01:18;;;;;;;46.53;21.00;;;3.40;99.90;;;;;;5030129;28;20029;-52
2022/03/04 11:03:43;;;;;;;49.88;21.77;;;3.40;99.90;;;;;;5032031;28;20405;-53
2022/03/04 11:06:11;;;;;;;45.20;21.35;;;3.50;99.90;;;;;;5030913;28;20037;-52
2022/03/04 11:08:37;;;;;;;45.58;18.30;;;3.50;99.90;;;;;;5025795;28;20532;-54
2022/03/04 11:11:04;;;;;;;45.45;19.98;;;3.60;99.90;;;;;;5028423;28;20037;-52
2022/03/04 11:13:32;;;;;;;42.63;18.17;;;3.60;99.90;;;;;;5029369;28;20124;-52
2022/03/04 11:15:58;;;;;;;47.70;19.52;;;3.70;99.90;;;;;;5027264;28;20517;-54
2022/03/04 11:18:24;;;;;;;46.50;19.77;;;3.80;99.90;;;;;;5028123;28;20120;-52
2022/03/04 11:20:52;;;;;;;42.95;19.92;;;3.80;99.90;;;;;;5030970;28;20524;-52
2022/03/04 11:23:23;;;;;;;45.47;19.85;;;3.90;99.90;;;;;;5025149;28;20176;-52
2022/03/04 11:25:59;;;;;;;44.58;20.92;;;3.90;99.90;;;;;;5031269;28;20505;-50
2022/03/04 11:28:49;;;;;;;40.92;20.30;;;4.00;99.90;;;;;;5030351;28;20395;-53
2022/03/04 11:31:16;;;;;;;42.45;18.73;;;4.00;99.90;;;;;;5032389;28;20084;-52
2022/03/04 11:33:51;;;;;;;35.13;15.63;;;4.10;99.90;;;;;;5031627;28;20077;-51
2022/03/04 11:36:25;;;;;;;38.33;18.20;;;4.20;99.90;;;;;;5046774;28;20135;-52
2022/03/04 11:38:51;;;;;;;40.53;19.77;;;4.20;99.90;;;;;;5031828;28;20117;-53
2022/03/04 11:41:30;;;;;;;43.92;20.75;;;4.20;99.90;;;;;;5031510;28;20037;-52
2022/03/04 11:43:59;;;;;;;41.70;20.00;;;4.30;99.90;;;;;;5030957;28;20045;-52
2022/03/04 11:46:41;;;;;;;41.10;19.92;;;4.30;99.90;;;;;;5031180;28;20410;-52
2022/03/04 11:49:25;;;;;;;38.70;18.17;;;4.40;99.90;;;;;;5025082;28;20037;-52
2022/03/04 11:52:12;;;;;;;40.92;19.45;;;4.60;99.90;;;;;;4996977;28;20073;-53
2022/03/04 11:54:42;;;;;;;39.50;18.08;;;4.60;99.90;;;;;;5013564;28;20049;-52
2022/03/04 11:57:22;;;;;;;35.92;17.20;;;4.70;99.90;;;;;;5026432;28;20038;-49
2022/03/04 11:59:57;;;;;;;34.90;17.27;;;4.70;99.90;;;;;;5028195;28;20454;-52
2022/03/04 12:02:38;;;;;;;35.95;17.83;;;4.80;99.90;;;;;;5001809;28;20034;-52
2022/03/04 12:05:30;;;;;;;32.50;17.70;;;4.80;99.90;;;;;;5024755;28;20045;-52
2022/03/04 12:07:55;;;;;;;30.67;14.83;;;4.80;99.90;;;;;;5030844;28;20049;-52
2022/03/04 12:10:23;;;;;;;33.65;16.98;;;4.90;99.90;;;;;;5027835;28;20103;-53
2022/03/04 12:12:58;;;;;;;32.42;16.17;;;5.00;99.90;;;;;;5029442;28;20041;-50
2022/03/04 12:15:24;;;;;;;30.42;14.43;;;5.10;99.90;;;;;;5028272;28;20048;-53
2022/03/04 12:17:59;;;;;;;33.05;16.52;;;5.20;99.90;;;;;;5030489;28;20054;-52
2022/03/04 12:20:40;;;;;;;34.08;16.77;;;5.30;99.90;;;;;;5028056;28;20033;-52
2022/03/04 12:23:14;;;;;;;33.00;16.85;;;5.40;99.90;;;;;;5023162;28;20116;-55
2022/03/04 12:25:54;;;;;;;29.67;14.60;;;5.40;99.90;;;;;;5027434;28;20492;-55
2022/03/04 12:28:32;;;;;;;36.92;17.25;;;5.40;99.90;;;;;;5022688;28;20516;-53
2022/03/04 12:31:01;;;;;;;33.90;15.90;;;5.50;99.90;;;;;;5021262;28;20513;-54
2022/03/04 12:33:34;;;;;;;29.23;14.57;;;5.60;99.90;;;;;;5024394;28;20045;-52
2022/03/04 12:36:03;;;;;;;32.17;15.65;;;5.60;99.90;;;;;;5030602;28;20052;-53
2022/03/04 12:38:36;;;;;;;29.27;15.50;;;5.70;99.90;;;;;;5034233;28;20095;-52